Time;durP1;ratioP1;P1;durP2;ratioP2;P2;SDS_P1;SDS_P2;PMS_P1;PMS_P2;Temp;Humidity;BMP_temperature;BMP_pressure;BME280_temperature;BME280_humidity;BME280_pressure;Samples;Min_cycle;Max_cycle;Signal;HPM_P1;HPM_P2
2022/02/02 00:00:16;;;;;;;;;;;;;;;5.09;83.27;97873.72;1731862;81;20455;-78
2022/02/02 00:02:46;;;;;;;;;;;;;;;5.14;82.71;97867.45;1727604;81;20131;-79
2022/02/02 00:13:03;;;;;;;;;;;;;;;5.07;82.99;97845.13;1726779;81;20211;-79
2022/02/02 00:18:37;;;;;;;;;;;;;;;4.87;83.86;97847.42;1737318;81;20628;-79
2022/02/02 00:21:05;;;;;;;;;;;;;;;5.09;83.73;97839.71;1734762;81;20634;-79
2022/02/02 00:23:14;;;;;;;;;;;;;;;5.26;83.43;97841.67;1724917;82;20175;-79
2022/02/02 00:25:43;;;;;;;;;;;;;;;5.07;83.98;97839.09;1731951;82;20188;-79
2022/02/02 00:28:04;;;;;;;;;;;;;;;5.15;83.53;97849.46;1734098;82;20131;-79
2022/02/02 00:30:33;;;;;;;;;;;;;;;4.98;84.57;97844.37;1732938;81;20507;-79
2022/02/02 00:35:29;;;;;;;;;;;;;;;5.14;84.00;97834.27;1730705;82;20111;-79
2022/02/02 00:37:51;;;;;;;;;;;;;;;5.00;84.48;97830.64;1728482;82;20153;-79
2022/02/02 00:40:16;;;;;;;;;;;;;;;4.99;84.79;97827.70;1739803;81;20160;-78
2022/02/02 00:42:45;;;;;;;;;;;;;;;5.20;84.29;97826.19;1734373;82;20158;-79
2022/02/02 00:45:09;;;;;;;;;;;;;;;5.22;83.83;97815.06;1737466;81;20490;-78
2022/02/02 00:47:38;;;;;;;;;;;;;;;5.08;84.58;97815.36;1730625;82;21081;-79
2022/02/02 00:50:03;;;;;;;;;;;;;;;5.04;85.09;97804.42;1731900;82;20427;-79
2022/02/02 00:52:28;;;;;;;;;;;;;;;5.09;84.82;97795.24;1733021;82;20367;-78
2022/02/02 00:54:54;;;;;;;;;;;;;;;4.95;85.20;97805.49;1733476;82;20139;-81
2022/02/02 00:57:19;;;;;;;;;;;;;;;5.14;85.15;97808.59;1733137;82;20196;-81
2022/02/02 00:59:45;;;;;;;;;;;;;;;5.09;84.95;97805.70;1730060;82;21849;-78
2022/02/02 01:02:12;;;;;;;;;;;;;;;5.43;84.12;97801.75;1731642;82;20222;-79
2022/02/02 01:04:38;;;;;;;;;;;;;;;5.26;84.39;97796.69;1732765;82;20208;-79
2022/02/02 01:09:47;;;;;;;;;;;;;;;5.21;84.29;97784.65;1713839;83;20486;-80
2022/02/02 01:28:15;;;;;;;;;;;;;;;4.60;88.45;97771.18;1751997;81;20094;-80
2022/02/02 01:30:40;;;;;;;;;;;;;;;4.54;88.94;97761.43;1751355;81;20154;-79
2022/02/02 01:33:07;;;;;;;;;;;;;;;4.91;87.82;97772.86;1753327;81;20144;-80
2022/02/02 01:35:32;;;;;;;;;;;;;;;5.00;87.27;97765.73;1753932;81;20185;-79
2022/02/02 01:37:58;;;;;;;;;;;;;;;4.91;87.55;97770.25;1750050;81;21131;-80
2022/02/02 01:40:32;;;;;;;;;;;;;;;4.76;87.49;97773.33;1751604;81;20476;-80
2022/02/02 01:43:04;;;;;;;;;;;;;;;4.95;87.38;97770.19;1747858;81;20498;-80
2022/02/02 01:45:33;;;;;;;;;;;;;;;5.00;86.97;97774.41;1749456;81;20154;-80
2022/02/02 01:48:09;;;;;;;;;;;;;;;5.10;86.64;97774.64;1750446;81;20127;-79
2022/02/02 01:50:24;;;;;;;;;;;;;;;5.03;86.55;97771.44;1746681;80;20142;-79
2022/02/02 01:53:07;;;;;;;;;;;;;;;5.25;85.54;97755.83;1750993;81;20192;-79
2022/02/02 01:55:29;;;;;;;;;;;;;;;5.34;85.38;97756.53;1750258;80;20130;-79
2022/02/02 01:58:04;;;;;;;;;;;;;;;5.58;84.72;97759.36;1752158;81;20656;-80
2022/02/02 02:00:21;;;;;;;;;;;;;;;5.57;84.39;97751.18;1750655;81;20173;-80
2022/02/02 02:02:47;;;;;;;;;;;;;;;5.78;83.96;97752.21;1752761;81;21099;-78
2022/02/02 02:05:12;;;;;;;;;;;;;;;5.50;84.61;97757.66;1753569;81;20145;-79
2022/02/02 02:07:38;;;;;;;;;;;;;;;5.59;84.37;97755.72;1756624;81;21025;-78
2022/02/02 02:10:04;;;;;;;;;;;;;;;5.74;83.94;97751.27;1755400;80;20729;-79
2022/02/02 02:12:40;;;;;;;;;;;;;;;5.79;83.55;97749.41;1754648;81;20165;-79
2022/02/02 02:15:05;;;;;;;;;;;;;;;5.89;83.50;97745.20;1743502;81;21257;-79
2022/02/02 02:17:28;;;;;;;;;;;;;;;5.93;83.18;97746.44;1750466;81;20148;-78
2022/02/02 02:19:54;;;;;;;;;;;;;;;5.89;82.95;97742.58;1748531;81;20239;-78
2022/02/02 02:22:25;;;;;;;;;;;;;;;5.88;83.20;97739.64;1738878;81;20517;-78
2022/02/02 02:24:52;;;;;;;;;;;;;;;5.74;83.41;97738.69;1747773;81;20156;-78
2022/02/02 02:27:19;;;;;;;;;;;;;;;5.64;83.49;97739.47;1744056;81;21139;-78
2022/02/02 02:32:46;;;;;;;;;;;;;;;5.79;83.39;97738.13;1746455;81;20111;-78
2022/02/02 02:55:46;;;;;;;;;;;;;;;5.72;83.62;97730.21;1745007;81;20135;-79
2022/02/02 02:55:49;;;;;;;;;;;;;;;5.25;85.71;97729.67;1738047;81;20139;-79
2022/02/02 02:56:15;;;;;;;;;;;;;;;5.22;85.55;97728.72;1747903;80;20087;-79
2022/02/02 02:58:57;;;;;;;;;;;;;;;5.36;85.48;97729.67;1737380;81;20216;-80
2022/02/02 03:01:21;;;;;;;;;;;;;;;5.37;85.42;97729.48;1741401;81;20080;-79
2022/02/02 03:31:13;;;;;;;;;;;;;;;4.85;88.05;97739.58;1725140;82;20128;-77
2022/02/02 03:55:23;;;;;;;;;;;;;;;4.79;93.58;97748.14;1726055;82;20523;-78
2022/02/02 03:57:54;;;;;;;;;;;;;;;4.86;94.48;97746.41;1728982;82;20208;-78
2022/02/02 04:05:34;;;;;;;;;;;;;;;5.23;94.20;97742.09;1723810;81;20501;-78
2022/02/02 04:08:09;;;;;;;;;;;;;;;5.10;95.46;97743.25;1727394;82;20145;-78
2022/02/02 04:10:21;;;;;;;;;;;;;;;5.13;96.39;97749.43;1726167;82;20173;-78
2022/02/02 04:12:54;;;;;;;;;;;;;;;5.24;95.47;97743.73;1736820;82;21209;-78
2022/02/02 04:37:20;;;;;;;;;;;;;;;5.35;95.50;97748.50;1727264;82;20214;-80
2022/02/02 04:55:31;;;;;;;;;;;;;;;5.71;95.55;97788.30;1734829;82;20144;-80
2022/02/02 05:06:03;;;;;;;;;;;;;;;5.75;96.19;97764.69;1727268;82;20145;-80
2022/02/02 05:08:43;;;;;;;;;;;;;;;5.84;95.61;97788.14;1727336;82;20156;-80
2022/02/02 05:43:42;;;;;;;;;;;;;;;5.79;95.75;97796.55;1724221;82;20223;-77
2022/02/02 05:51:01;;;;;;;;;;;;;;;5.85;95.06;97793.70;1731168;82;20177;-80
2022/02/02 05:53:14;;;;;;;;;;;;;;;5.96;94.47;97801.08;1728976;82;20229;-80
2022/02/02 05:55:41;;;;;;;;;;;;;;;5.83;95.57;97795.20;1726682;82;20540;-80
2022/02/02 05:58:07;;;;;;;;;;;;;;;5.87;95.06;97808.72;1726844;82;21067;-76
2022/02/02 06:00:36;;;;;;;;;;;;;;;5.87;94.46;97785.16;1730385;82;20199;-80
2022/02/02 06:03:02;;;;;;;;;;;;;;;5.96;94.14;97798.45;1731648;81;20568;-80
2022/02/02 06:05:28;;;;;;;;;;;;;;;5.91;94.54;97803.44;1729360;82;20234;-80
2022/02/02 06:07:54;;;;;;;;;;;;;;;5.80;95.10;97813.09;1722720;82;20255;-80
2022/02/02 06:10:21;;;;;;;;;;;;;;;5.83;94.91;97829.24;1729462;82;21099;-80
2022/02/02 06:12:47;;;;;;;;;;;;;;;5.68;95.18;97835.80;1734708;82;20169;-80
2022/02/02 06:15:16;;;;;;;;;;;;;;;5.68;95.10;97818.77;1723925;80;20155;-80
2022/02/02 06:17:45;;;;;;;;;;;;;;;5.84;93.95;97818.26;1732021;80;20242;-80
2022/02/02 06:20:10;;;;;;;;;;;;;;;5.78;94.56;97831.61;1735409;82;20161;-79
2022/02/02 06:22:39;;;;;;;;;;;;;;;5.76;95.25;97819.17;1731519;82;21156;-80
2022/02/02 06:25:26;;;;;;;;;;;;;;;5.90;94.47;97818.83;1733644;80;20338;-81
2022/02/02 06:27:58;;;;;;;;;;;;;;;5.67;95.55;97823.72;1734127;82;20509;-80
2022/02/02 06:30:24;;;;;;;;;;;;;;;5.88;95.03;97826.08;1730349;82;20228;-81
2022/02/02 06:32:50;;;;;;;;;;;;;;;5.68;96.06;97834.48;1735168;82;20180;-80
2022/02/02 06:35:16;;;;;;;;;;;;;;;5.79;95.55;97849.43;1730714;82;21179;-80
2022/02/02 06:37:42;;;;;;;;;;;;;;;5.91;94.89;97846.66;1730403;82;20769;-80
2022/02/02 06:40:09;;;;;;;;;;;;;;;5.88;94.96;97847.03;1736046;81;20201;-80
2022/02/02 06:42:36;;;;;;;;;;;;;;;5.72;95.97;97840.99;1732391;81;20925;-79
2022/02/02 06:45:02;;;;;;;;;;;;;;;5.77;95.52;97852.73;1728532;82;20239;-80
2022/02/02 06:47:28;;;;;;;;;;;;;;;5.96;94.62;97837.75;1725588;82;21098;-77
2022/02/02 06:50:03;;;;;;;;;;;;;;;5.84;94.77;97871.95;1724787;82;20270;-80
2022/02/02 06:52:25;;;;;;;;;;;;;;;5.92;94.53;97850.92;1731585;82;20293;-80
2022/02/02 06:55:00;;;;;;;;;;;;;;;5.64;95.35;97868.59;1728917;82;20180;-80
2022/02/02 06:57:41;;;;;;;;;;;;;;;5.75;94.96;97859.47;1726846;82;20234;-81
2022/02/02 07:00:15;;;;;;;;;;;;;;;5.67;94.95;97860.38;1720301;82;20170;-80
2022/02/02 07:03:03;;;;;;;;;;;;;;;5.77;94.77;97859.28;1729767;82;20137;-80
2022/02/02 07:18:51;;;;;;;;;;;;;;;5.56;93.84;97908.77;1727982;82;20539;-78
2022/02/02 07:33:56;;;;;;;;;;;;;;;5.85;91.21;97884.86;1732735;81;20215;-80
2022/02/02 07:36:30;;;;;;;;;;;;;;;5.70;92.13;97900.59;1725830;81;20216;-80
2022/02/02 07:39:06;;;;;;;;;;;;;;;5.69;91.74;97902.89;1729408;82;20527;-79
2022/02/02 07:41:35;;;;;;;;;;;;;;;5.67;91.74;97894.41;1728788;82;20142;-80
2022/02/02 07:44:07;;;;;;;;;;;;;;;5.44;93.39;97896.27;1732200;81;20145;-81
2022/02/02 07:46:28;;;;;;;;;;;;;;;5.76;91.28;97893.80;1716931;82;20128;-80
2022/02/02 07:48:54;;;;;;;;;;;;;;;5.74;91.35;97896.61;1727694;82;20124;-80
2022/02/02 07:51:20;;;;;;;;;;;;;;;5.65;92.07;97906.85;1725792;82;21821;-81
2022/02/02 07:53:50;;;;;;;;;;;;;;;5.69;91.91;97902.89;1728939;82;20144;-80
2022/02/02 07:56:16;;;;;;;;;;;;;;;5.75;91.34;97894.82;1730025;82;20232;-79
2022/02/02 07:58:44;;;;;;;;;;;;;;;5.81;91.16;97898.50;1733169;82;20225;-78
2022/02/02 08:01:09;;;;;;;;;;;;;;;5.61;91.90;97914.77;1735460;80;20225;-78
2022/02/02 08:03:40;;;;;;;;;;;;;;;5.72;91.26;97914.31;1728768;82;21112;-80
2022/02/02 08:06:03;;;;;;;;;;;;;;;5.70;91.22;97918.93;1730258;82;20175;-79
2022/02/02 08:08:33;;;;;;;;;;;;;;;5.64;90.93;97911.80;1734230;82;20172;-79
2022/02/02 08:10:57;;;;;;;;;;;;;;;5.63;91.57;97907.54;1722217;82;20178;-79
2022/02/02 08:13:26;;;;;;;;;;;;;;;5.57;91.98;97908.25;1728246;82;20236;-80
2022/02/02 08:15:57;;;;;;;;;;;;;;;5.64;91.46;97914.41;1734656;80;20207;-79
2022/02/02 08:18:17;;;;;;;;;;;;;;;5.49;92.05;97927.98;1728673;82;20360;-79
2022/02/02 08:20:43;;;;;;;;;;;;;;;5.32;92.73;97925.50;1728307;82;20173;-79
2022/02/02 08:23:08;;;;;;;;;;;;;;;5.53;92.81;97934.47;1730548;80;20143;-79
2022/02/02 08:25:34;;;;;;;;;;;;;;;5.36;93.02;97928.09;1725190;82;20176;-79
2022/02/02 08:28:03;;;;;;;;;;;;;;;5.39;93.18;97934.28;1733361;82;21062;-78
2022/02/02 08:30:29;;;;;;;;;;;;;;;5.50;92.48;97939.58;1726667;82;20181;-79
2022/02/02 08:33:01;;;;;;;;;;;;;;;5.31;93.60;97935.64;1734164;82;20499;-79
2022/02/02 08:35:24;;;;;;;;;;;;;;;5.42;92.70;97951.92;1728678;81;20233;-79
2022/02/02 08:37:58;;;;;;;;;;;;;;;5.54;91.91;97949.19;1726849;82;20345;-79
2022/02/02 08:40:23;;;;;;;;;;;;;;;5.35;92.62;97942.16;1733064;82;20160;-78
2022/02/02 08:42:45;;;;;;;;;;;;;;;5.32;92.91;97965.27;1727880;81;20197;-78
2022/02/02 08:45:19;;;;;;;;;;;;;;;5.62;91.98;97959.58;1722672;82;20821;-78
2022/02/02 08:47:38;;;;;;;;;;;;;;;5.42;92.38;97962.39;1726078;82;20222;-79
2022/02/02 08:50:05;;;;;;;;;;;;;;;5.48;92.11;97956.45;1728494;81;20184;-79
2022/02/02 08:52:44;;;;;;;;;;;;;;;5.53;91.54;97969.80;1728891;81;21153;-79
2022/02/02 08:55:04;;;;;;;;;;;;;;;5.50;91.84;97965.76;1730953;81;20192;-79
2022/02/02 08:57:46;;;;;;;;;;;;;;;5.49;91.53;97971.17;1729709;82;20243;-79
2022/02/02 09:00:12;;;;;;;;;;;;;;;5.54;91.37;97993.19;1734446;82;20196;-78
2022/02/02 09:02:40;;;;;;;;;;;;;;;5.44;91.56;97998.35;1727719;82;20525;-80
2022/02/02 09:05:23;;;;;;;;;;;;;;;5.71;90.91;97999.59;1725924;82;20235;-79
2022/02/02 09:07:48;;;;;;;;;;;;;;;5.40;92.18;98001.32;1727484;82;20161;-78
2022/02/02 09:10:20;;;;;;;;;;;;;;;5.53;91.90;98014.31;1728341;82;21049;-78
2022/02/02 09:21:48;;;;;;;;;;;;;;;5.63;90.51;97993.94;1731475;82;20164;-78
2022/02/02 09:23:57;;;;;;;;;;;;;;;5.62;90.74;98001.97;1729320;80;20171;-78
2022/02/02 09:31:24;;;;;;;;;;;;;;;5.63;91.21;98006.23;1733053;79;20153;-78
2022/02/02 09:34:12;;;;;;;;;;;;;;;5.53;91.57;98016.45;1606565;87;20136;-79
2022/02/02 09:36:42;;;;;;;;;;;;;;;5.42;91.84;98035.67;1605637;88;20222;-81
2022/02/02 09:39:13;;;;;;;;;;;;;;;5.43;91.13;98017.69;1652033;81;20164;-79
2022/02/02 09:41:40;;;;;;;;;;;;;;;5.27;91.64;98046.91;1731465;82;20564;-79
2022/02/02 09:44:06;;;;;;;;;;;;;;;5.55;90.34;98038.53;1728229;81;20678;-79
2022/02/02 09:46:58;;;;;;;;;;;;;;;5.53;89.95;98035.25;1724132;82;20124;-79
2022/02/02 09:52:01;;;;;;;;;;;;;;;5.55;89.07;98036.72;1729604;82;20181;-80
2022/02/02 09:54:33;;;;;;;;;;;;;;;5.49;88.96;98043.16;1730041;81;20182;-78
2022/02/02 09:59:32;;;;;;;;;;;;;;;5.30;88.97;98047.88;1730235;82;20647;-80
2022/02/02 10:13:01;;;;;;;;;;;;;;;5.26;89.69;98068.02;1731871;82;20133;-78
2022/02/02 10:15:18;;;;;;;;;;;;;;;5.33;89.71;98093.80;1724336;81;20180;-78
2022/02/02 10:17:45;;;;;;;;;;;;;;;5.33;89.65;98095.94;1729813;81;20242;-77
2022/02/02 10:20:21;;;;;;;;;;;;;;;5.17;90.42;98073.78;1723428;82;20167;-78
2022/02/02 10:22:49;;;;;;;;;;;;;;;5.10;90.23;98071.55;1728110;81;22075;-77
2022/02/02 10:25:33;;;;;;;;;;;;;;;5.25;90.31;98085.53;1732379;82;20327;-78
2022/02/02 10:28:14;;;;;;;;;;;;;;;5.05;90.79;98096.92;1725843;82;20216;-80
2022/02/02 10:30:43;;;;;;;;;;;;;;;5.25;89.88;98099.92;1729353;81;20509;-80
2022/02/02 10:33:15;;;;;;;;;;;;;;;5.07;90.84;98114.56;1733396;80;20136;-80
2022/02/02 10:35:43;;;;;;;;;;;;;;;5.09;90.87;98103.92;1726717;80;22026;-79
2022/02/02 10:38:17;;;;;;;;;;;;;;;4.98;91.47;98109.85;1731060;82;20687;-78
2022/02/02 10:43:27;;;;;;;;;;;;;;;5.10;91.07;98109.49;1730203;82;20154;-81
2022/02/02 10:45:52;;;;;;;;;;;;;;;5.11;90.61;98108.02;1729605;82;21026;-81
2022/02/02 10:48:42;;;;;;;;;;;;;;;5.25;90.38;98118.24;1730390;82;21074;-79
2022/02/02 10:51:10;;;;;;;;;;;;;;;5.37;89.90;98122.57;1727665;82;20171;-79
2022/02/02 10:53:41;;;;;;;;;;;;;;;5.13;90.36;98139.23;1726469;81;20505;-80
2022/02/02 10:56:29;;;;;;;;;;;;;;;5.33;89.58;98119.50;1721984;81;20123;-79
2022/02/02 11:01:34;;;;;;;;;;;;;;;5.19;90.03;98125.47;1731163;82;20464;-80
2022/02/02 11:06:38;;;;;;;;;;;;;;;5.24;89.40;98138.84;1733650;82;20119;-79
2022/02/02 11:09:05;;;;;;;;;;;;;;;5.23;89.69;98134.59;1726929;82;20185;-79
2022/02/02 11:11:31;;;;;;;;;;;;;;;5.31;88.54;98133.22;1730298;81;20190;-80
2022/02/02 11:14:02;;;;;;;;;;;;;;;5.16;87.99;98159.83;1729473;82;21143;-79
2022/02/02 11:16:32;;;;;;;;;;;;;;;5.13;88.57;98141.85;1717865;80;20171;-79
2022/02/02 11:18:58;;;;;;;;;;;;;;;5.28;88.56;98149.27;1695902;84;20193;-80
2022/02/02 11:21:31;;;;;;;;;;;;;;;5.06;88.75;98180.94;1682081;83;20164;-79
2022/02/02 11:23:59;;;;;;;;;;;;;;;5.21;88.20;98153.58;1703242;82;37685;-78
2022/02/02 11:26:42;;;;;;;;;;;;;;;4.92;89.30;98175.92;1742053;82;21106;-79
2022/02/02 11:29:08;;;;;;;;;;;;;;;5.18;87.94;98173.55;1742354;81;20228;-81
2022/02/02 11:31:33;;;;;;;;;;;;;;;5.18;87.55;98199.70;1741495;82;20213;-80
2022/02/02 11:34:00;;;;;;;;;;;;;;;5.27;86.90;98196.07;1742215;82;20178;-80
2022/02/02 11:36:40;;;;;;;;;;;;;;;5.02;87.55;98201.40;1726605;82;20154;-80
2022/02/02 11:39:07;;;;;;;;;;;;;;;5.04;87.31;98219.04;1722577;82;21270;-78
2022/02/02 11:47:07;;;;;;;;;;;;;;;5.20;86.32;98256.13;1728391;80;20145;-78
2022/02/02 11:49:29;;;;;;;;;;;;;;;5.22;86.27;98242.88;1728884;82;20134;-78
2022/02/02 11:51:58;;;;;;;;;;;;;;;5.34;85.91;98238.88;1728783;82;20650;-78
2022/02/02 11:54:34;;;;;;;;;;;;;;;5.01;88.18;98227.72;1727233;82;20122;-78
2022/02/02 11:57:10;;;;;;;;;;;;;;;5.45;86.05;98253.90;1723798;82;20147;-79
2022/02/02 12:02:33;;;;;;;;;;;;;;;5.22;87.25;98245.50;1726696;82;20247;-79
2022/02/02 12:05:05;;;;;;;;;;;;;;;5.14;87.96;98255.97;1722677;82;20546;-79
2022/02/02 12:49:24;;;;;;;;;;;;;;;4.49;92.08;98367.50;1794334;79;20322;-79
2022/02/02 12:57:07;;;;;;;;;;;;;;;4.33;92.74;98396.20;1791294;79;20482;-80
2022/02/02 13:02:10;;;;;;;;;;;;;;;4.90;90.20;98411.98;1792332;79;20114;-80
2022/02/02 13:04:36;;;;;;;;;;;;;;;4.81;90.47;98431.25;1794658;78;20127;-79
2022/02/02 13:07:16;;;;;;;;;;;;;;;4.77;91.02;98416.86;1793986;79;20160;-79
2022/02/02 13:09:43;;;;;;;;;;;;;;;4.63;91.39;98423.06;1795999;79;20174;-78
2022/02/02 13:12:18;;;;;;;;;;;;;;;4.44;92.10;98437.71;1793911;79;21073;-81
2022/02/02 13:15:05;;;;;;;;;;;;;;;4.49;91.95;98437.58;1787264;79;20125;-81
2022/02/02 13:17:14;;;;;;;;;;;;;;;4.62;91.95;98450.17;1788664;79;20628;-81
2022/02/02 13:19:42;;;;;;;;;;;;;;;4.85;90.33;98458.73;1787418;79;20130;-80
2022/02/02 13:22:09;;;;;;;;;;;;;;;4.74;90.51;98479.94;1782724;79;20126;-80
2022/02/02 13:24:34;;;;;;;;;;;;;;;4.75;91.29;98465.89;1786681;79;20147;-81
2022/02/02 13:27:15;;;;;;;;;;;;;;;4.79;90.60;98457.56;1788157;78;20868;-80
2022/02/02 13:29:44;;;;;;;;;;;;;;;4.81;91.15;98480.95;1783730;79;20145;-80
2022/02/02 14:04:03;;;;;;;;;;;;;;;5.62;86.26;98585.89;1784241;78;20112;-78
2022/02/02 14:09:33;;;;;;;;;;;;;;;5.40;86.65;98591.58;1786556;78;20513;-78
2022/02/02 14:31:08;;;;;;;;;;;;;;;5.45;84.26;98642.65;1783137;79;20096;-79
2022/02/02 14:33:31;;;;;;;;;;;;;;;5.26;85.11;98647.18;1782761;79;21095;-78
2022/02/02 14:36:00;;;;;;;;;;;;;;;5.21;84.98;98658.63;1784110;79;20133;-79
2022/02/02 14:38:24;;;;;;;;;;;;;;;5.26;85.10;98658.95;1783242;79;20132;-79
2022/02/02 14:43:24;;;;;;;;;;;;;;;5.54;83.75;98671.30;1785742;79;20122;-79
2022/02/02 14:45:50;;;;;;;;;;;;;;;5.51;83.38;98689.94;1784599;79;20509;-79
2022/02/02 14:48:23;;;;;;;;;;;;;;;5.23;84.32;98699.84;1787401;78;20116;-78
2022/02/02 14:53:36;;;;;;;;;;;;;;;5.39;83.79;98716.92;1784423;79;20132;-79
2022/02/02 15:30:33;;;;;;;;;;;;;;;5.07;86.25;98803.95;1783903;79;20164;-81
2022/02/02 15:32:59;;;;;;;;;;;;;;;5.30;84.71;98818.64;1786645;79;20210;-79
2022/02/02 15:35:25;;;;;;;;;;;;;;;5.49;84.42;98822.02;1778775;79;20221;-81
2022/02/02 15:38:01;;;;;;;;;;;;;;;5.36;85.23;98825.88;1783454;79;20151;-78
2022/02/02 15:40:33;;;;;;;;;;;;;;;5.33;85.22;98828.80;1781869;79;20078;-79
2022/02/02 15:58:34;;;;;;;;;;;;;;;5.33;85.55;98882.47;1785454;78;20151;-80
2022/02/02 16:03:36;;;;;;;;;;;;;;;5.13;85.87;98896.72;1785208;79;20152;-80
2022/02/02 16:06:02;;;;;;;;;;;;;;;5.36;86.03;98895.24;1781504;79;20196;-81
2022/02/02 16:08:25;;;;;;;;;;;;;;;5.56;84.83;98906.80;1786371;79;21001;-80
2022/02/02 16:15:57;;;;;;;;;;;;;;;5.58;84.37;98946.77;1784743;79;20112;-81
2022/02/02 16:18:43;;;;;;;;;;;;;;;5.49;85.00;98924.13;1783671;79;20143;-80
2022/02/02 16:37:38;;;;;;;;;;;;;;;5.47;84.54;98982.34;1784863;79;20223;-80
2022/02/02 16:40:05;;;;;;;;;;;;;;;5.52;84.43;98990.09;1786755;79;20115;-80
2022/02/02 16:45:14;;;;;;;;;;;;;;;5.52;83.66;98984.05;1783209;79;20232;-79
2022/02/02 16:47:40;;;;;;;;;;;;;;;5.47;83.86;98982.34;1752624;79;20810;-79
2022/02/02 16:50:07;;;;;;;;;;;;;;;5.35;84.22;98989.14;1784637;79;20143;-79
2022/02/02 16:52:34;;;;;;;;;;;;;;;5.48;83.75;98995.29;1784229;79;21105;-79
2022/02/02 16:55:06;;;;;;;;;;;;;;;5.54;83.81;98991.25;1783177;79;20144;-79
2022/02/02 16:57:42;;;;;;;;;;;;;;;5.26;85.02;99005.75;1785823;79;20460;-81
2022/02/02 17:35:02;;;;;;;;;;;;;;;5.27;81.75;99086.42;1778955;79;20148;-81
2022/02/02 17:37:43;;;;;;;;;;;;;;;5.58;80.79;99085.56;1780835;79;20334;-81
2022/02/02 17:40:03;;;;;;;;;;;;;;;5.19;81.29;99095.02;1784817;79;20126;-80
2022/02/02 17:45:01;;;;;;;;;;;;;;;5.27;80.97;99096.40;1779173;79;20167;-79
2022/02/02 18:00:10;;;;;;;;;;;;;;;4.91;81.31;99130.35;1781962;79;20243;-80
2022/02/02 18:19:17;;;;;;;;;;;;;;;5.20;80.38;99185.16;1780631;78;20443;-80
2022/02/02 18:21:43;;;;;;;;;;;;;;;5.28;80.41;99180.48;1788030;79;21261;-78
2022/02/02 18:24:19;;;;;;;;;;;;;;;5.04;81.11;99183.15;1782891;79;21197;-79
2022/02/02 18:29:38;;;;;;;;;;;;;;;5.07;81.04;99183.84;1783184;79;20188;-79
2022/02/02 18:31:50;;;;;;;;;;;;;;;5.09;81.60;99197.60;1783398;79;20151;-79
2022/02/02 18:36:51;;;;;;;;;;;;;;;5.21;80.91;99213.45;1784016;79;20126;-79
2022/02/02 18:47:19;;;;;;;;;;;;;;;5.19;80.76;99232.42;1785899;79;20120;-79
2022/02/02 19:00:29;;;;;;;;;;;;;;;5.44;80.43;99244.47;1785611;79;20111;-80
2022/02/02 19:40:33;;;;;;;;;;;;;;;5.28;78.79;99334.92;1781671;79;20167;-78
2022/02/02 20:01:56;;;;;;;;;;;;;;;5.14;76.84;99394.27;1727880;82;20182;-79
2022/02/02 20:12:13;;;;;;;;;;;;;;;5.21;75.27;99413.69;1788441;79;20158;-79
2022/02/02 20:14:38;;;;;;;;;;;;;;;5.14;74.89;99424.36;1785300;79;20415;-80
2022/02/02 20:17:05;;;;;;;;;;;;;;;5.29;74.55;99436.05;1787258;79;20169;-79
2022/02/02 20:19:31;;;;;;;;;;;;;;;4.98;74.88;99427.55;1786147;79;20174;-79
2022/02/02 20:21:57;;;;;;;;;;;;;;;5.20;74.54;99438.20;1788027;79;22042;-79
2022/02/02 20:24:27;;;;;;;;;;;;;;;5.09;74.77;99451.44;1783191;79;20188;-79
2022/02/02 20:26:51;;;;;;;;;;;;;;;4.99;75.08;99470.58;1779224;79;20117;-79
2022/02/02 20:29:16;;;;;;;;;;;;;;;4.99;74.86;99478.92;1778135;79;20113;-79
2022/02/02 20:31:42;;;;;;;;;;;;;;;4.99;74.85;99469.77;1787763;79;20492;-79
2022/02/02 20:34:12;;;;;;;;;;;;;;;5.00;74.42;99476.17;1782692;79;21009;-79
2022/02/02 20:36:39;;;;;;;;;;;;;;;5.12;73.82;99487.31;1783286;79;20137;-79
2022/02/02 20:39:14;;;;;;;;;;;;;;;5.04;73.71;99486.69;1788275;79;20211;-79
2022/02/02 20:41:37;;;;;;;;;;;;;;;4.90;74.10;99509.33;1778469;79;20164;-79
2022/02/02 20:44:05;;;;;;;;;;;;;;;4.92;73.06;99513.94;1781598;79;20164;-79
2022/02/02 21:08:20;;;;;;;;;;;;;;;4.74;72.87;99557.41;1752085;79;20132;-78
2022/02/02 21:10:28;;;;;;;;;;;;;;;4.53;72.94;99566.15;1778317;79;20196;-78
2022/02/02 21:15:38;;;;;;;;;;;;;;;4.68;72.68;99575.78;1789862;79;20141;-80
2022/02/02 21:18:10;;;;;;;;;;;;;;;4.58;72.59;99581.44;1785438;79;20204;-79
2022/02/02 21:20:51;;;;;;;;;;;;;;;4.51;72.50;99596.84;1771637;79;20081;-79
2022/02/02 21:23:05;;;;;;;;;;;;;;;4.42;73.31;99615.43;1757677;80;20532;-80
2022/02/02 21:25:37;;;;;;;;;;;;;;;4.74;72.50;99618.41;1759838;79;20132;-79
2022/02/02 21:28:02;;;;;;;;;;;;;;;4.64;72.70;99639.27;1763952;81;20109;-79
2022/02/02 21:30:29;;;;;;;;;;;;;;;4.60;71.85;99633.97;1764418;81;20145;-79
2022/02/02 21:32:55;;;;;;;;;;;;;;;4.61;72.14;99629.07;1762113;81;20200;-79
2022/02/02 21:35:23;;;;;;;;;;;;;;;4.36;73.27;99626.89;1759311;81;20853;-79
2022/02/02 21:37:51;;;;;;;;;;;;;;;4.42;73.46;99626.38;1760762;79;21137;-80
2022/02/02 21:40:23;;;;;;;;;;;;;;;4.57;73.37;99638.16;1759544;79;20101;-80
2022/02/02 21:42:44;;;;;;;;;;;;;;;4.39;73.27;99637.09;1764505;79;20120;-79
2022/02/02 21:45:10;;;;;;;;;;;;;;;4.46;73.02;99640.37;1767924;81;20169;-80
2022/02/02 21:47:36;;;;;;;;;;;;;;;4.67;72.81;99639.01;1764561;79;20143;-80
2022/02/02 21:50:06;;;;;;;;;;;;;;;4.41;72.02;99633.41;1758486;80;21896;-80
2022/02/02 21:52:32;;;;;;;;;;;;;;;4.28;72.93;99651.06;1762105;79;20337;-80
2022/02/02 21:54:57;;;;;;;;;;;;;;;4.26;73.08;99663.44;1758397;79;20248;-80
2022/02/02 21:57:23;;;;;;;;;;;;;;;4.35;72.92;99661.82;1761295;80;20771;-80
2022/02/02 21:59:49;;;;;;;;;;;;;;;4.00;73.24;99655.14;1759929;81;20172;-80
2022/02/02 22:02:14;;;;;;;;;;;;;;;4.23;72.74;99691.13;1760708;79;21114;-80
2022/02/02 22:04:40;;;;;;;;;;;;;;;4.21;72.37;99672.97;1764990;80;20341;-80
2022/02/02 22:07:05;;;;;;;;;;;;;;;4.26;72.47;99690.39;1758795;80;20164;-80
2022/02/02 22:09:31;;;;;;;;;;;;;;;4.16;72.02;99697.80;1764321;81;20155;-79
2022/02/02 22:11:57;;;;;;;;;;;;;;;4.10;72.19;99709.58;1766395;81;20273;-81
2022/02/02 22:14:25;;;;;;;;;;;;;;;4.10;71.82;99709.58;1761143;80;22177;-80
2022/02/02 22:16:51;;;;;;;;;;;;;;;4.09;71.53;99711.86;1762603;79;20163;-81
2022/02/02 22:19:17;;;;;;;;;;;;;;;4.21;71.65;99718.70;1763871;81;20431;-80
2022/02/02 22:21:43;;;;;;;;;;;;;;;4.05;71.47;99728.73;1780050;79;20099;-79
2022/02/02 22:24:09;;;;;;;;;;;;;;;3.87;71.36;99734.50;1783575;79;20304;-80
2022/02/02 22:26:35;;;;;;;;;;;;;;;3.84;71.62;99732.13;1784114;79;21077;-79
2022/02/02 22:29:01;;;;;;;;;;;;;;;3.94;70.66;99743.97;1782963;79;20180;-79
2022/02/02 22:31:27;;;;;;;;;;;;;;;4.04;70.41;99765.80;1784796;79;21265;-79
2022/02/02 22:33:52;;;;;;;;;;;;;;;4.07;70.63;99749.87;1778881;79;21149;-79
2022/02/02 22:36:19;;;;;;;;;;;;;;;4.05;70.66;99756.17;1781862;79;20128;-79
2022/02/02 22:38:45;;;;;;;;;;;;;;;3.85;70.38;99770.34;1781632;79;21066;-80
2022/02/02 22:41:11;;;;;;;;;;;;;;;3.90;70.31;99775.20;1784276;79;20180;-79
2022/02/02 22:43:44;;;;;;;;;;;;;;;3.73;70.92;99781.79;1781062;79;20215;-79
2022/02/02 22:46:04;;;;;;;;;;;;;;;3.76;70.57;99789.38;1789586;79;20307;-79
2022/02/02 22:48:32;;;;;;;;;;;;;;;4.05;69.91;99792.26;1785320;79;20163;-79
2022/02/02 22:50:57;;;;;;;;;;;;;;;3.93;69.45;99800.62;1785734;79;20148;-79
2022/02/02 22:53:24;;;;;;;;;;;;;;;3.96;69.31;99806.05;1783993;79;20147;-79
2022/02/02 22:55:50;;;;;;;;;;;;;;;3.97;68.95;99804.30;1779629;79;20221;-80
2022/02/02 22:58:15;;;;;;;;;;;;;;;3.99;68.59;99821.97;1782387;79;21210;-80
2022/02/02 23:00:42;;;;;;;;;;;;;;;3.99;68.55;99821.97;1780479;79;20191;-80
2022/02/02 23:03:16;;;;;;;;;;;;;;;4.45;67.73;99826.95;1785723;79;21134;-80
2022/02/02 23:05:40;;;;;;;;;;;;;;;4.31;67.52;99835.91;1789858;79;20126;-80
2022/02/02 23:08:05;;;;;;;;;;;;;;;4.22;68.13;99841.87;1787032;78;20179;-79
2022/02/02 23:10:31;;;;;;;;;;;;;;;3.99;68.76;99845.48;1781844;79;20184;-80
2022/02/02 23:12:57;;;;;;;;;;;;;;;4.08;68.60;99843.45;1780344;79;21058;-79
2022/02/02 23:15:37;;;;;;;;;;;;;;;4.12;68.14;99858.77;1782697;79;21114;-79
2022/02/02 23:18:04;;;;;;;;;;;;;;;4.21;68.06;99852.45;1779390;79;20156;-79
2022/02/02 23:20:24;;;;;;;;;;;;;;;4.13;67.95;99856.97;1780109;79;20168;-79
2022/02/02 23:22:49;;;;;;;;;;;;;;;3.69;68.65;99863.92;1782623;79;20245;-80
2022/02/02 23:25:19;;;;;;;;;;;;;;;3.95;67.80;99881.00;1787976;79;20483;-80
2022/02/02 23:27:45;;;;;;;;;;;;;;;3.90;67.87;99879.23;1785715;79;20697;-79